Time;durP1;ratioP1;P1;durP2;ratioP2;P2;SDS_P1;SDS_P2;PMS_P1;PMS_P2;Temp;Humidity;BMP_temperature;BMP_pressure;BME280_temperature;BME280_humidity;BME280_pressure;Samples;Min_cycle;Max_cycle;Signal;HPM_P1;HPM_P2
2020/12/27 00:01:43;;;;;;;2.45;2.25;;;16.50;29.40;;;;;;5114221;28;20240;-61
2020/12/27 00:04:09;;;;;;;2.80;2.15;;;16.40;29.30;;;;;;5096071;28;20612;-59
2020/12/27 00:06:35;;;;;;;2.08;1.98;;;16.50;29.40;;;;;;5114224;28;20191;-59
2020/12/27 00:09:01;;;;;;;2.27;2.07;;;16.50;29.40;;;;;;5113899;28;20541;-59
2020/12/27 00:11:26;;;;;;;1.97;1.77;;;16.50;29.40;;;;;;5114310;28;20289;-59
2020/12/27 00:13:52;;;;;;;3.00;2.70;;;16.40;29.30;;;;;;5114139;28;20288;-59
2020/12/27 00:16:25;;;;;;;2.30;2.10;;;16.50;29.40;;;;;;5114271;28;20218;-60
2020/12/27 00:18:52;;;;;;;2.22;2.13;;;16.40;29.40;;;;;;5114041;28;20583;-59
2020/12/27 00:21:18;;;;;;;1.88;1.77;;;16.40;29.30;;;;;;5114127;28;20626;-59
2020/12/27 00:23:44;;;;;;;2.47;2.03;;;16.50;29.40;;;;;;5117117;28;20244;-60
2020/12/27 00:26:11;;;;;;;2.30;2.20;;;16.40;29.30;;;;;;5118522;28;20241;-59
2020/12/27 00:28:37;;;;;;;2.05;1.85;;;16.50;29.40;;;;;;5100013;28;20403;-59
2020/12/27 00:31:02;;;;;;;1.83;1.73;;;16.40;29.30;;;;;;5099940;28;20175;-59
2020/12/27 00:33:28;;;;;;;2.50;2.20;;;16.40;29.30;;;;;;5118025;28;20177;-59
2020/12/27 00:35:54;;;;;;;3.30;2.97;;;16.40;29.30;;;;;;5118064;28;20402;-59
2020/12/27 00:38:19;;;;;;;2.10;1.90;;;16.40;29.30;;;;;;5117785;28;20616;-59
2020/12/27 00:40:45;;;;;;;2.23;2.03;;;16.50;29.30;;;;;;5118147;28;20164;-59
2020/12/27 00:43:10;;;;;;;2.80;2.60;;;16.40;29.30;;;;;;5117982;28;20157;-59
2020/12/27 00:45:36;;;;;;;2.57;2.37;;;16.40;29.30;;;;;;5118051;28;20687;-59
2020/12/27 00:48:02;;;;;;;1.90;1.80;;;16.50;29.40;;;;;;5082663;28;20165;-60
2020/12/27 00:50:28;;;;;;;4.17;2.30;;;16.50;29.40;;;;;;5117897;28;20202;-59
2020/12/27 00:52:54;;;;;;;2.40;2.20;;;16.40;29.30;;;;;;5117394;28;20244;-60
2020/12/27 00:55:20;;;;;;;2.00;1.90;;;16.50;29.40;;;;;;5117569;28;20271;-59
2020/12/27 00:57:45;;;;;;;2.80;1.90;;;16.40;29.40;;;;;;5115397;28;20208;-59
2020/12/27 01:00:11;;;;;;;2.50;2.30;;;16.40;29.30;;;;;;5117663;28;20188;-60
2020/12/27 01:02:37;;;;;;;1.70;1.60;;;16.40;29.40;;;;;;5117584;28;20509;-59
2020/12/27 01:05:03;;;;;;;2.40;2.25;;;16.40;29.30;;;;;;5117525;28;20157;-59
2020/12/27 01:07:29;;;;;;;2.37;2.13;;;16.40;29.30;;;;;;5098733;28;20654;-59
2020/12/27 01:09:55;;;;;;;2.10;1.92;;;16.40;29.30;;;;;;5117777;28;20403;-60
2020/12/27 01:12:21;;;;;;;2.22;2.10;;;16.40;29.30;;;;;;5099072;28;20216;-59
2020/12/27 01:14:47;;;;;;;1.97;1.87;;;16.40;29.30;;;;;;5099390;28;20234;-59
2020/12/27 01:17:15;;;;;;;2.60;2.40;;;16.40;29.30;;;;;;5117091;28;20153;-60
2020/12/27 01:19:44;;;;;;;2.25;2.00;;;16.40;29.40;;;;;;5117488;28;20631;-60
2020/12/27 01:22:10;;;;;;;2.50;2.30;;;16.40;29.40;;;;;;5098639;28;20165;-60
2020/12/27 01:24:35;;;;;;;2.50;2.30;;;16.40;29.40;;;;;;5117544;28;20519;-59
2020/12/27 01:27:02;;;;;;;2.60;2.40;;;16.40;29.40;;;;;;5099190;28;20493;-59
2020/12/27 01:29:27;;;;;;;2.72;1.83;;;16.40;29.40;;;;;;5117198;28;20486;-59
2020/12/27 01:32:00;;;;;;;2.17;2.07;;;16.40;29.40;;;;;;5117258;28;20660;-59
2020/12/27 01:34:29;;;;;;;2.15;1.98;;;16.40;29.30;;;;;;5115536;28;20146;-59
2020/12/27 01:36:55;;;;;;;2.35;2.15;;;16.40;29.30;;;;;;5116894;28;20157;-59
2020/12/27 01:39:21;;;;;;;2.70;2.50;;;16.40;29.40;;;;;;5117413;28;20157;-60
2020/12/27 01:41:46;;;;;;;2.57;2.47;;;16.40;29.40;;;;;;5116990;28;20164;-60
2020/12/27 01:44:14;;;;;;;2.40;2.23;;;16.40;29.40;;;;;;5116872;28;20160;-59
2020/12/27 01:46:43;;;;;;;2.45;2.20;;;16.40;29.40;;;;;;5098842;28;20427;-60
2020/12/27 01:49:10;;;;;;;2.58;2.38;;;16.40;29.40;;;;;;5116643;28;20149;-59
2020/12/27 01:51:38;;;;;;;2.22;2.10;;;16.40;29.40;;;;;;5098587;28;20198;-60
2020/12/27 01:54:05;;;;;;;2.50;2.20;;;16.40;29.40;;;;;;5097892;28;20219;-59
2020/12/27 01:56:44;;;;;;;1.70;1.60;;;16.40;29.50;;;;;;5116567;28;20181;-60
2020/12/27 01:59:28;;;;;;;2.38;2.17;;;16.40;29.40;;;;;;5116650;28;20181;-60
2020/12/27 02:01:53;;;;;;;1.92;1.83;;;16.40;29.40;;;;;;5116563;28;20611;-60
2020/12/27 02:04:19;;;;;;;3.43;2.57;;;16.40;29.50;;;;;;5116590;28;20157;-59
2020/12/27 02:06:45;;;;;;;2.67;2.47;;;16.40;29.40;;;;;;5098341;28;20214;-59
2020/12/27 02:09:14;;;;;;;2.07;1.97;;;16.40;29.50;;;;;;5115814;28;20157;-59
2020/12/27 02:11:40;;;;;;;2.55;2.35;;;16.30;29.40;;;;;;5116470;28;20402;-60
2020/12/27 02:14:06;;;;;;;2.10;2.00;;;16.40;29.40;;;;;;5081351;28;20235;-59
2020/12/27 02:16:31;;;;;;;2.60;2.40;;;16.40;29.40;;;;;;5116144;28;20161;-60
2020/12/27 02:19:01;;;;;;;2.60;2.40;;;16.30;29.40;;;;;;5097865;28;20164;-60
2020/12/27 02:21:28;;;;;;;2.30;2.10;;;16.40;29.40;;;;;;5116383;28;20149;-59
2020/12/27 02:23:57;;;;;;;1.83;1.67;;;16.30;29.40;;;;;;5115680;28;20573;-60
2020/12/27 02:26:23;;;;;;;2.05;1.95;;;16.30;29.40;;;;;;5097830;28;20604;-60
2020/12/27 02:28:49;;;;;;;2.55;2.35;;;16.40;29.40;;;;;;5116073;28;20593;-59
2020/12/27 02:31:15;;;;;;;2.53;2.25;;;16.30;29.40;;;;;;5116021;28;20186;-60
2020/12/27 02:33:44;;;;;;;1.70;1.60;;;16.30;29.40;;;;;;5097722;28;20192;-59
2020/12/27 02:36:15;;;;;;;1.85;1.75;;;16.30;29.40;;;;;;5115829;28;20188;-59
2020/12/27 02:38:41;;;;;;;2.10;1.90;;;16.30;29.40;;;;;;5115605;28;20203;-60
2020/12/27 02:41:18;;;;;;;2.63;2.40;;;16.30;29.40;;;;;;5116003;28;20166;-60
2020/12/27 02:43:44;;;;;;;3.17;2.53;;;16.30;29.40;;;;;;5115675;28;20443;-61
2020/12/27 02:46:25;;;;;;;2.10;1.90;;;16.30;29.40;;;;;;5115487;28;20213;-58
2020/12/27 02:48:52;;;;;;;2.50;2.30;;;16.30;29.40;;;;;;5115631;28;20600;-59
2020/12/27 02:51:19;;;;;;;1.60;1.50;;;16.30;29.40;;;;;;5115546;28;20278;-60
2020/12/27 02:53:48;;;;;;;2.63;2.08;;;16.30;29.40;;;;;;5114766;28;20196;-60
2020/12/27 02:56:22;;;;;;;2.90;2.00;;;16.30;29.40;;;;;;5115380;28;20161;-60
2020/12/27 02:58:48;;;;;;;2.22;2.00;;;16.30;29.40;;;;;;5115459;28;20146;-62
2020/12/27 03:01:17;;;;;;;2.20;2.00;;;16.40;29.40;;;;;;5115163;28;20169;-59
2020/12/27 03:03:44;;;;;;;4.28;2.15;;;16.30;29.40;;;;;;5080181;28;20273;-60
2020/12/27 03:06:10;;;;;;;2.20;1.60;;;16.30;29.40;;;;;;5115186;28;20608;-60
2020/12/27 03:08:36;;;;;;;3.53;2.17;;;16.30;29.40;;;;;;5114825;28;20164;-61
2020/12/27 03:11:02;;;;;;;2.38;2.17;;;16.30;29.40;;;;;;5097146;28;20600;-60
2020/12/27 03:13:28;;;;;;;2.42;2.22;;;16.30;29.30;;;;;;5115025;28;20200;-59
2020/12/27 03:15:54;;;;;;;2.30;2.10;;;16.30;29.40;;;;;;5097192;28;20153;-59
2020/12/27 03:18:23;;;;;;;2.38;1.92;;;16.30;29.40;;;;;;5115123;28;20693;-59
2020/12/27 03:20:50;;;;;;;2.60;2.40;;;16.30;29.30;;;;;;5115073;28;20165;-60
2020/12/27 03:23:15;;;;;;;2.65;2.40;;;16.30;29.40;;;;;;5114455;28;20184;-60
2020/12/27 03:25:42;;;;;;;2.70;2.27;;;16.30;29.40;;;;;;5114992;28;20516;-60
2020/12/27 03:28:08;;;;;;;2.45;2.25;;;16.30;29.40;;;;;;5114942;28;20210;-59
2020/12/27 03:30:34;;;;;;;2.08;1.90;;;16.30;29.40;;;;;;5096594;28;20158;-59
2020/12/27 03:32:59;;;;;;;1.80;1.70;;;16.30;29.40;;;;;;5096510;28;20547;-60
2020/12/27 03:35:25;;;;;;;2.23;2.00;;;16.30;29.40;;;;;;5114673;28;20157;-60
2020/12/27 03:37:51;;;;;;;2.35;2.15;;;16.30;29.40;;;;;;5114332;28;20203;-60
2020/12/27 03:40:17;;;;;;;2.27;2.07;;;16.30;29.40;;;;;;5096704;28;20165;-59
2020/12/27 03:42:43;;;;;;;2.53;2.00;;;16.30;29.40;;;;;;5114503;28;20157;-59
2020/12/27 03:45:09;;;;;;;2.37;2.17;;;16.30;29.40;;;;;;5114635;28;20922;-60
2020/12/27 03:47:34;;;;;;;1.70;1.60;;;16.40;29.40;;;;;;5114342;28;20591;-60
2020/12/27 03:50:00;;;;;;;2.23;2.03;;;16.30;29.40;;;;;;5114856;28;20183;-60
2020/12/27 03:52:25;;;;;;;1.77;1.67;;;16.30;29.40;;;;;;5095832;28;20535;-61
2020/12/27 03:54:51;;;;;;;1.70;1.60;;;16.30;29.40;;;;;;5114413;28;20209;-59
2020/12/27 03:57:17;;;;;;;1.83;1.73;;;16.30;29.40;;;;;;5113503;28;20169;-60
2020/12/27 03:59:42;;;;;;;2.90;2.70;;;16.30;29.40;;;;;;5114592;28;20608;-60
2020/12/27 04:02:08;;;;;;;1.50;1.40;;;16.30;29.40;;;;;;5114566;28;20161;-59
2020/12/27 04:04:34;;;;;;;1.73;1.63;;;16.30;29.40;;;;;;5114428;28;20162;-60
2020/12/27 04:06:59;;;;;;;2.58;1.60;;;16.30;29.40;;;;;;5095782;28;20153;-60
2020/12/27 04:09:27;;;;;;;1.80;1.70;;;16.30;29.40;;;;;;5114342;28;20264;-59
2020/12/27 04:11:53;;;;;;;2.35;2.15;;;16.30;29.40;;;;;;5096006;28;20256;-60
2020/12/27 04:14:18;;;;;;;2.17;1.97;;;16.30;29.40;;;;;;5113971;28;20237;-60
2020/12/27 04:16:44;;;;;;;2.63;1.70;;;16.30;29.40;;;;;;5114337;28;20272;-59
2020/12/27 04:19:10;;;;;;;2.33;2.13;;;16.30;29.40;;;;;;5114170;28;20164;-60
2020/12/27 04:21:35;;;;;;;2.43;1.80;;;16.30;29.40;;;;;;5114181;28;20656;-60
2020/12/27 04:24:01;;;;;;;1.73;1.63;;;16.30;29.40;;;;;;5113971;28;20182;-60
2020/12/27 04:26:26;;;;;;;2.43;2.23;;;16.30;29.40;;;;;;5114137;28;20161;-60
2020/12/27 04:28:52;;;;;;;2.07;1.93;;;16.20;29.30;;;;;;5113960;28;20608;-60
2020/12/27 04:31:22;;;;;;;2.20;2.10;;;16.30;29.40;;;;;;5114306;28;20153;-60
2020/12/27 04:33:48;;;;;;;3.58;2.13;;;16.20;29.30;;;;;;5113779;28;20468;-60
2020/12/27 04:36:17;;;;;;;1.90;1.70;;;16.20;29.30;;;;;;5114049;28;20660;-60
2020/12/27 04:38:43;;;;;;;2.10;1.90;;;16.30;30.00;;;;;;5113472;28;20387;-60
2020/12/27 04:41:11;;;;;;;2.20;2.10;;;16.30;29.40;;;;;;5114292;28;20153;-60
2020/12/27 04:43:39;;;;;;;2.00;1.80;;;16.30;29.40;;;;;;5113772;28;20161;-60
2020/12/27 04:46:07;;;;;;;2.20;2.05;;;16.20;29.30;;;;;;5114152;28;20159;-60
2020/12/27 04:48:32;;;;;;;2.03;1.83;;;16.20;29.30;;;;;;5113890;28;20628;-60
2020/12/27 04:51:08;;;;;;;2.17;1.77;;;16.20;29.30;;;;;;5114023;28;20165;-60
2020/12/27 04:53:35;;;;;;;1.98;1.75;;;16.20;29.80;;;;;;5113076;28;20623;-60
2020/12/27 04:56:01;;;;;;;1.75;1.65;;;16.20;29.30;;;;;;5113877;28;20191;-60
2020/12/27 04:58:28;;;;;;;2.35;2.15;;;16.20;29.30;;;;;;5113763;28;20153;-59
2020/12/27 05:00:55;;;;;;;2.03;1.90;;;16.20;29.30;;;;;;5114053;28;20477;-59
2020/12/27 05:03:20;;;;;;;2.58;1.95;;;16.20;29.30;;;;;;5113810;28;20157;-60
2020/12/27 05:05:51;;;;;;;2.00;1.57;;;16.20;29.30;;;;;;5095517;28;20173;-60
2020/12/27 05:08:18;;;;;;;2.10;1.80;;;16.20;29.30;;;;;;5114120;28;20165;-59
2020/12/27 05:10:44;;;;;;;1.98;1.88;;;16.20;29.30;;;;;;5117733;28;20153;-60
2020/12/27 05:13:19;;;;;;;1.70;1.60;;;16.20;29.30;;;;;;5117257;28;20269;-60
2020/12/27 05:15:45;;;;;;;2.05;1.80;;;16.20;29.90;;;;;;5117571;28;20149;-59
2020/12/27 05:18:14;;;;;;;1.48;1.38;;;16.20;29.30;;;;;;5117467;28;20173;-59
2020/12/27 05:20:49;;;;;;;1.80;1.70;;;16.20;29.30;;;;;;5117430;28;20181;-60
2020/12/27 05:23:14;;;;;;;1.73;1.63;;;16.20;29.30;;;;;;5116995;28;20574;-59
2020/12/27 05:25:40;;;;;;;2.20;2.00;;;16.20;29.30;;;;;;5099046;28;20620;-59
2020/12/27 05:28:10;;;;;;;2.50;2.30;;;16.20;29.30;;;;;;5117032;28;20292;-59
2020/12/27 05:30:43;;;;;;;2.40;2.20;;;16.20;29.30;;;;;;5117392;28;20161;-59
2020/12/27 05:33:13;;;;;;;2.25;2.05;;;16.20;29.30;;;;;;5117322;28;20192;-59
2020/12/27 05:35:39;;;;;;;2.47;1.83;;;16.20;29.30;;;;;;5117069;28;20162;-59
2020/12/27 05:38:07;;;;;;;2.22;2.05;;;16.20;29.30;;;;;;5098367;28;20222;-59
2020/12/27 05:40:42;;;;;;;2.00;1.83;;;16.20;29.30;;;;;;5117138;28;20150;-59
2020/12/27 05:43:16;;;;;;;1.80;1.70;;;16.20;29.30;;;;;;5116830;28;20161;-59
2020/12/27 05:45:42;;;;;;;2.10;1.90;;;16.20;29.30;;;;;;5116979;28;20173;-59
2020/12/27 05:48:08;;;;;;;1.80;1.70;;;16.20;29.30;;;;;;5117092;28;20168;-59
2020/12/27 05:50:40;;;;;;;2.47;2.27;;;16.20;29.30;;;;;;5116843;28;20153;-60
2020/12/27 05:53:20;;;;;;;2.33;1.83;;;16.10;29.20;;;;;;5116310;28;20441;-59
2020/12/27 05:55:49;;;;;;;2.17;1.98;;;16.10;29.20;;;;;;5116474;28;20257;-59
2020/12/27 05:58:22;;;;;;;2.08;1.88;;;16.10;29.20;;;;;;5116253;28;20181;-60
2020/12/27 06:00:51;;;;;;;1.80;1.70;;;16.10;29.20;;;;;;5116610;28;20199;-59
2020/12/27 06:03:20;;;;;;;1.75;1.65;;;16.10;29.20;;;;;;5098218;28;20536;-59
2020/12/27 06:05:58;;;;;;;4.18;2.17;;;16.20;29.30;;;;;;5116512;28;20269;-59
2020/12/27 06:08:33;;;;;;;2.28;1.60;;;16.10;29.20;;;;;;5116080;28;20149;-60
2020/12/27 06:11:19;;;;;;;2.33;1.83;;;16.10;29.20;;;;;;5116454;28;20596;-60
2020/12/27 06:14:16;;;;;;;1.90;1.80;;;16.10;29.20;;;;;;5097790;28;20291;-59
2020/12/27 06:16:44;;;;;;;1.58;1.42;;;16.20;29.30;;;;;;5116279;28;20248;-59
2020/12/27 06:19:22;;;;;;;2.30;2.10;;;16.20;29.30;;;;;;5116285;28;20672;-59
2020/12/27 06:22:05;;;;;;;2.22;2.03;;;16.10;29.20;;;;;;5115893;28;20153;-59
2020/12/27 06:24:35;;;;;;;1.70;1.60;;;16.20;29.30;;;;;;5116264;28;20333;-58
2020/12/27 06:27:02;;;;;;;1.60;1.50;;;16.10;29.20;;;;;;5115957;28;20161;-59
2020/12/27 06:29:51;;;;;;;1.98;1.77;;;16.10;29.20;;;;;;5116125;28;20155;-59
2020/12/27 06:32:21;;;;;;;2.03;1.80;;;16.10;29.20;;;;;;5115225;28;20208;-59
2020/12/27 06:34:47;;;;;;;1.90;1.80;;;16.10;29.20;;;;;;5116058;28;20161;-59
2020/12/27 06:37:15;;;;;;;1.60;1.50;;;16.10;29.20;;;;;;5115331;28;20218;-59
2020/12/27 06:39:47;;;;;;;2.35;2.15;;;16.10;29.20;;;;;;5115757;28;20164;-59
2020/12/27 06:42:15;;;;;;;2.00;1.75;;;16.10;29.20;;;;;;5115620;28;20153;-59
2020/12/27 06:44:49;;;;;;;2.08;1.90;;;16.10;29.20;;;;;;5097681;28;20672;-59
2020/12/27 06:47:16;;;;;;;2.45;2.25;;;16.10;29.20;;;;;;5115641;28;20189;-58
2020/12/27 06:49:42;;;;;;;1.88;1.77;;;16.10;29.20;;;;;;5115725;28;20189;-58
2020/12/27 06:52:24;;;;;;;1.88;1.77;;;16.10;29.20;;;;;;5115121;28;20160;-59
2020/12/27 06:54:53;;;;;;;1.95;1.85;;;16.10;29.20;;;;;;5115563;28;20709;-59
2020/12/27 06:57:45;;;;;;;1.90;1.80;;;16.10;29.20;;;;;;5115480;28;20566;-59
2020/12/27 07:00:37;;;;;;;1.90;1.80;;;16.10;29.20;;;;;;5115967;28;20186;-59
2020/12/27 07:03:11;;;;;;;2.75;2.05;;;16.10;29.20;;;;;;5074112;28;20234;-60
2020/12/27 07:05:39;;;;;;;2.15;1.75;;;16.50;29.50;;;;;;5131341;27;20226;-59
2020/12/27 07:08:07;;;;;;;1.80;1.70;;;16.10;29.20;;;;;;5114720;28;20163;-59
2020/12/27 07:10:35;;;;;;;1.90;1.80;;;16.10;29.20;;;;;;5115282;28;20185;-60
2020/12/27 07:13:09;;;;;;;1.98;1.88;;;16.10;29.20;;;;;;5115176;28;20192;-59
2020/12/27 07:15:44;;;;;;;1.80;1.67;;;16.10;29.20;;;;;;5115176;28;20157;-60
2020/12/27 07:18:10;;;;;;;1.63;1.52;;;16.10;29.20;;;;;;5115180;28;20152;-59
2020/12/27 07:20:42;;;;;;;1.80;1.70;;;16.20;29.30;;;;;;5115106;28;20153;-59
2020/12/27 07:23:18;;;;;;;2.47;2.00;;;16.10;29.20;;;;;;5114380;28;20153;-60
2020/12/27 07:25:44;;;;;;;1.60;1.50;;;16.10;29.20;;;;;;5115395;28;20183;-59
2020/12/27 07:28:11;;;;;;;1.97;1.70;;;16.10;29.20;;;;;;5114920;28;20539;-60
2020/12/27 07:30:38;;;;;;;1.80;1.70;;;16.20;29.30;;;;;;5114924;28;20165;-59
2020/12/27 07:33:12;;;;;;;1.40;1.30;;;16.20;29.30;;;;;;5115185;28;20208;-59
2020/12/27 07:35:38;;;;;;;2.08;1.92;;;16.10;29.20;;;;;;5114936;28;20226;-60
2020/12/27 07:38:06;;;;;;;1.70;1.60;;;16.10;29.20;;;;;;5114135;28;20193;-59
2020/12/27 07:40:34;;;;;;;1.50;1.40;;;16.10;29.20;;;;;;5096564;28;20413;-60
2020/12/27 07:43:01;;;;;;;1.98;1.88;;;16.10;29.20;;;;;;5114681;28;20160;-59
2020/12/27 07:45:27;;;;;;;2.05;1.77;;;16.10;29.10;;;;;;5114836;28;20161;-59
2020/12/27 07:47:53;;;;;;;1.75;1.65;;;16.10;29.10;;;;;;5114453;28;20600;-60
2020/12/27 07:50:20;;;;;;;1.70;1.60;;;16.10;29.10;;;;;;5114620;28;20161;-59
2020/12/27 07:52:53;;;;;;;2.20;1.70;;;16.10;29.10;;;;;;5095702;28;20529;-60
2020/12/27 07:55:25;;;;;;;1.77;1.67;;;16.10;29.10;;;;;;5114288;28;20220;-59
2020/12/27 07:57:52;;;;;;;2.00;1.80;;;16.20;29.10;;;;;;5114406;28;20587;-60
2020/12/27 08:00:25;;;;;;;1.50;1.40;;;16.20;29.00;;;;;;5114510;28;20169;-59
2020/12/27 08:02:51;;;;;;;1.90;1.80;;;16.20;29.00;;;;;;5114289;28;20263;-59
2020/12/27 08:05:17;;;;;;;1.70;1.60;;;16.20;29.50;;;;;;5114330;28;20149;-59
2020/12/27 08:07:46;;;;;;;1.30;1.20;;;16.20;28.90;;;;;;5113925;28;20407;-60
2020/12/27 08:10:22;;;;;;;1.98;1.83;;;16.20;28.90;;;;;;5114318;28;20189;-59
2020/12/27 08:12:50;;;;;;;1.67;1.58;;;16.20;28.90;;;;;;5114164;28;20271;-59
2020/12/27 08:15:16;;;;;;;2.20;2.00;;;16.20;28.80;;;;;;5096489;28;20154;-59
2020/12/27 08:18:11;;;;;;;1.73;1.63;;;16.20;28.80;;;;;;5096044;28;20152;-59
2020/12/27 08:20:48;;;;;;;1.70;1.60;;;16.30;28.80;;;;;;5041778;28;20442;-59
2020/12/27 08:23:14;;;;;;;1.63;1.52;;;16.30;28.70;;;;;;5113565;28;20285;-59
2020/12/27 08:25:40;;;;;;;2.58;1.95;;;16.30;28.70;;;;;;5114111;28;20157;-60
2020/12/27 08:28:11;;;;;;;1.50;1.40;;;16.30;28.70;;;;;;5113956;28;20280;-60
2020/12/27 08:30:37;;;;;;;1.88;1.73;;;16.30;28.60;;;;;;5114113;28;20568;-60
2020/12/27 08:33:09;;;;;;;1.50;1.40;;;16.30;28.60;;;;;;5114047;28;20670;-60
2020/12/27 08:35:35;;;;;;;1.50;1.40;;;16.30;28.60;;;;;;5113965;28;20784;-59
2020/12/27 08:38:12;;;;;;;2.30;2.10;;;16.30;28.50;;;;;;5113616;28;20343;-59
2020/12/27 08:40:43;;;;;;;1.65;1.50;;;16.30;28.50;;;;;;5114245;28;20149;-59
2020/12/27 08:43:22;;;;;;;2.00;1.80;;;16.30;28.50;;;;;;5114616;28;20157;-59
2020/12/27 08:45:56;;;;;;;1.45;1.35;;;16.40;28.40;;;;;;5118115;28;20160;-58
2020/12/27 08:48:38;;;;;;;1.40;1.30;;;16.40;28.40;;;;;;5117809;28;20153;-60
2020/12/27 08:51:05;;;;;;;2.53;2.30;;;16.40;28.30;;;;;;5118152;28;20149;-59
2020/12/27 08:53:40;;;;;;;2.17;1.83;;;16.40;28.30;;;;;;5117499;28;20640;-60
2020/12/27 08:56:07;;;;;;;1.70;1.60;;;16.40;28.30;;;;;;5099507;28;20193;-60
2020/12/27 08:58:33;;;;;;;1.55;1.45;;;16.40;28.20;;;;;;5117698;28;20615;-59
2020/12/27 09:00:58;;;;;;;2.00;1.90;;;16.40;28.20;;;;;;5117873;28;20669;-60
2020/12/27 09:03:24;;;;;;;1.63;1.53;;;16.50;28.20;;;;;;5117650;28;20252;-59
2020/12/27 09:05:50;;;;;;;1.70;1.60;;;16.50;28.20;;;;;;5099505;28;20165;-60
2020/12/27 09:08:18;;;;;;;1.47;1.37;;;16.50;28.10;;;;;;5117141;28;20248;-60
2020/12/27 09:10:44;;;;;;;1.73;1.63;;;16.50;28.10;;;;;;5099235;28;20154;-60
2020/12/27 09:13:11;;;;;;;1.75;1.65;;;16.50;28.00;;;;;;5117402;28;20200;-59
2020/12/27 09:15:46;;;;;;;2.13;2.03;;;16.50;28.00;;;;;;5117545;28;20156;-60
2020/12/27 09:18:13;;;;;;;2.55;1.80;;;16.50;28.00;;;;;;5117291;28;20176;-60
2020/12/27 09:20:41;;;;;;;1.75;1.60;;;16.50;27.90;;;;;;5117560;28;20569;-60
2020/12/27 09:23:20;;;;;;;2.05;1.85;;;16.50;27.90;;;;;;5116834;28;20196;-60
2020/12/27 09:26:05;;;;;;;1.42;1.33;;;16.60;27.90;;;;;;5117332;28;20189;-59
2020/12/27 09:28:33;;;;;;;1.70;1.58;;;16.60;28.40;;;;;;5117012;28;20195;-60
2020/12/27 09:31:00;;;;;;;2.00;1.90;;;16.60;27.80;;;;;;5117318;28;20269;-60
2020/12/27 09:33:26;;;;;;;1.90;1.80;;;16.60;27.80;;;;;;5117010;28;20716;-60
2020/12/27 09:35:56;;;;;;;1.70;1.60;;;16.60;27.80;;;;;;5117188;28;20179;-60
2020/12/27 09:38:28;;;;;;;2.63;2.42;;;16.60;27.70;;;;;;5116509;28;20153;-60
2020/12/27 09:41:07;;;;;;;2.05;1.65;;;16.60;27.70;;;;;;5116958;28;20148;-60
2020/12/27 09:43:58;;;;;;;2.08;1.98;;;16.70;27.70;;;;;;5117105;28;20160;-60
2020/12/27 09:46:51;;;;;;;1.80;1.33;;;16.70;27.60;;;;;;5098319;28;20268;-60
2020/12/27 09:49:34;;;;;;;1.88;1.77;;;16.70;27.60;;;;;;5117309;28;20176;-60
2020/12/27 09:52:12;;;;;;;1.20;1.10;;;16.80;27.60;;;;;;5116297;28;20156;-59
2020/12/27 09:54:40;;;;;;;2.10;1.90;;;16.80;27.50;;;;;;5115609;28;20254;-60
2020/12/27 09:57:27;;;;;;;1.63;1.52;;;16.80;27.40;;;;;;5116433;28;20170;-60
2020/12/27 09:59:53;;;;;;;1.70;1.60;;;16.80;27.40;;;;;;5116769;28;20258;-60
2020/12/27 10:02:21;;;;;;;1.70;1.60;;;16.80;27.40;;;;;;5116469;28;20156;-59
2020/12/27 10:04:47;;;;;;;1.73;1.63;;;16.80;27.30;;;;;;5116639;28;20499;-60
2020/12/27 10:07:16;;;;;;;2.50;2.15;;;16.80;27.30;;;;;;5097929;28;20167;-59
2020/12/27 10:09:44;;;;;;;1.70;1.35;;;16.80;27.30;;;;;;5116788;28;20161;-60
2020/12/27 10:12:10;;;;;;;1.50;1.40;;;16.80;27.20;;;;;;5116172;28;20153;-60
2020/12/27 10:14:36;;;;;;;2.53;2.33;;;16.80;27.20;;;;;;5116511;28;20160;-59
2020/12/27 10:17:02;;;;;;;1.90;1.80;;;16.80;27.20;;;;;;5116136;28;20233;-59
2020/12/27 10:19:29;;;;;;;1.70;1.60;;;16.80;27.20;;;;;;5116454;28;20179;-60
2020/12/27 10:21:55;;;;;;;2.10;1.90;;;16.90;27.30;;;;;;5115899;28;20866;-60
2020/12/27 10:24:23;;;;;;;1.50;1.40;;;16.90;27.20;;;;;;5116360;28;20585;-59
2020/12/27 10:26:50;;;;;;;3.30;2.30;;;16.90;27.20;;;;;;5116815;28;20639;-60
2020/12/27 10:29:16;;;;;;;3.15;1.50;;;16.90;27.20;;;;;;5116498;28;20161;-59
2020/12/27 10:31:41;;;;;;;1.80;1.70;;;16.90;27.10;;;;;;5098082;28;20264;-59
2020/12/27 10:34:07;;;;;;;1.50;1.40;;;16.90;27.10;;;;;;5116564;28;20188;-60
2020/12/27 10:36:33;;;;;;;4.73;2.30;;;16.90;27.10;;;;;;5116117;28;20163;-60
2020/12/27 10:38:58;;;;;;;2.50;2.07;;;16.90;27.10;;;;;;5115446;28;20162;-61
2020/12/27 10:41:24;;;;;;;2.83;1.67;;;16.90;27.00;;;;;;5115979;28;20149;-60
2020/12/27 10:43:50;;;;;;;2.00;1.83;;;16.90;27.00;;;;;;5115912;28;20165;-61
2020/12/27 10:46:20;;;;;;;2.83;2.20;;;16.90;27.00;;;;;;5115600;28;20172;-60
2020/12/27 10:48:47;;;;;;;1.80;1.70;;;17.00;27.00;;;;;;5115810;28;20163;-60
2020/12/27 10:51:16;;;;;;;2.15;1.48;;;16.90;26.90;;;;;;5114315;28;20221;-60
2020/12/27 10:53:41;;;;;;;1.85;1.75;;;17.00;26.90;;;;;;5115013;28;20243;-60
2020/12/27 10:56:07;;;;;;;1.70;1.60;;;17.00;26.90;;;;;;5115494;28;20554;-60
2020/12/27 10:58:33;;;;;;;1.63;1.53;;;17.00;26.90;;;;;;5115588;28;20631;-60
2020/12/27 11:00:58;;;;;;;1.70;1.55;;;16.90;26.70;;;;;;5115635;28;20161;-60
2020/12/27 11:03:24;;;;;;;1.90;1.80;;;17.00;26.70;;;;;;5096999;28;20177;-60
2020/12/27 11:05:50;;;;;;;1.73;1.63;;;17.00;26.70;;;;;;5096861;28;20172;-60
2020/12/27 11:08:15;;;;;;;2.07;1.83;;;17.00;26.60;;;;;;5096639;28;20176;-60
2020/12/27 11:10:44;;;;;;;2.70;1.80;;;17.00;26.60;;;;;;5115443;28;20195;-60
2020/12/27 11:13:10;;;;;;;1.90;1.70;;;16.90;26.60;;;;;;5115220;28;20196;-60
2020/12/27 11:15:36;;;;;;;2.60;2.07;;;16.90;26.60;;;;;;5115438;28;20169;-60
2020/12/27 11:18:02;;;;;;;2.93;1.90;;;17.00;26.70;;;;;;5115382;28;20407;-61
2020/12/27 11:20:28;;;;;;;2.47;1.90;;;17.00;26.60;;;;;;5115202;28;20177;-60
2020/12/27 11:22:56;;;;;;;2.47;2.10;;;17.00;26.60;;;;;;5114708;28;20635;-60
2020/12/27 11:25:22;;;;;;;2.10;1.90;;;17.00;26.60;;;;;;5115349;28;20176;-60
2020/12/27 11:27:48;;;;;;;1.85;1.75;;;17.00;26.60;;;;;;5114829;28;20160;-60
2020/12/27 11:30:17;;;;;;;2.33;1.80;;;17.00;26.60;;;;;;5114913;28;20162;-61
2020/12/27 11:32:46;;;;;;;3.50;2.75;;;17.00;26.60;;;;;;5115101;28;20639;-60
2020/12/27 11:35:12;;;;;;;2.47;2.28;;;17.00;26.60;;;;;;5096437;28;20173;-60
2020/12/27 11:37:38;;;;;;;2.38;2.10;;;17.00;26.60;;;;;;5114470;28;20538;-60
2020/12/27 11:40:04;;;;;;;3.10;2.40;;;17.00;26.60;;;;;;5115042;28;20600;-60
2020/12/27 11:42:30;;;;;;;2.03;1.90;;;17.00;26.70;;;;;;5114517;28;20199;-59
2020/12/27 11:44:56;;;;;;;2.90;2.27;;;17.00;26.70;;;;;;5114841;28;20165;-60
2020/12/27 11:47:22;;;;;;;2.73;2.40;;;16.90;26.70;;;;;;5114429;28;20163;-60
2020/12/27 11:49:48;;;;;;;2.10;1.90;;;16.90;26.70;;;;;;5114846;28;20161;-60
2020/12/27 11:52:13;;;;;;;2.30;2.10;;;16.90;26.70;;;;;;5095619;28;20430;-61
2020/12/27 11:54:39;;;;;;;2.07;1.97;;;17.00;26.80;;;;;;5114186;28;20209;-60
2020/12/27 11:57:05;;;;;;;2.10;1.90;;;16.90;26.70;;;;;;5114543;28;20161;-61
2020/12/27 11:59:31;;;;;;;2.70;1.97;;;16.90;26.70;;;;;;5114757;28;20608;-60
2020/12/27 12:01:57;;;;;;;2.87;1.80;;;17.00;26.70;;;;;;5114441;28;20584;-63
2020/12/27 12:04:22;;;;;;;2.50;2.20;;;17.00;26.70;;;;;;5114493;28;20274;-60
2020/12/27 12:06:48;;;;;;;2.30;1.83;;;17.00;26.70;;;;;;5114354;28;20878;-61
2020/12/27 12:09:13;;;;;;;2.20;2.00;;;17.00;26.70;;;;;;5113747;28;20157;-61
2020/12/27 12:11:41;;;;;;;2.40;2.20;;;17.00;26.70;;;;;;5114466;28;20585;-61
2020/12/27 12:14:07;;;;;;;2.05;1.90;;;17.00;26.70;;;;;;5114296;28;20192;-60
2020/12/27 12:16:33;;;;;;;2.70;2.25;;;17.00;26.70;;;;;;5130241;28;20255;-59
2020/12/27 12:19:01;;;;;;;3.13;2.30;;;17.00;26.70;;;;;;5113718;28;20188;-60
2020/12/27 12:21:27;;;;;;;2.03;1.92;;;17.00;26.70;;;;;;5114259;28;20399;-60
2020/12/27 12:23:54;;;;;;;2.88;2.67;;;17.00;26.70;;;;;;5113755;28;20168;-59
2020/12/27 12:26:24;;;;;;;1.95;1.80;;;17.00;26.70;;;;;;5114106;28;20160;-60
2020/12/27 12:28:50;;;;;;;2.95;2.30;;;17.00;26.70;;;;;;5114070;28;20157;-60
2020/12/27 12:31:17;;;;;;;3.30;2.42;;;16.90;26.70;;;;;;5114421;28;20161;-60
2020/12/27 12:33:47;;;;;;;3.42;2.78;;;16.90;26.70;;;;;;5114042;28;20184;-60
2020/12/27 12:36:21;;;;;;;2.90;1.95;;;16.90;26.70;;;;;;5114147;28;20146;-60
2020/12/27 12:38:47;;;;;;;3.15;2.60;;;16.90;26.70;;;;;;5113669;28;20176;-61
2020/12/27 12:41:22;;;;;;;2.00;1.80;;;16.90;26.70;;;;;;5113840;28;20161;-60
2020/12/27 12:43:48;;;;;;;3.60;2.53;;;16.90;26.80;;;;;;5113993;28;20195;-60
2020/12/27 12:46:14;;;;;;;2.70;2.50;;;16.90;26.80;;;;;;5114106;28;20192;-61
2020/12/27 12:48:40;;;;;;;2.60;1.90;;;16.90;26.80;;;;;;5114137;28;20618;-60
2020/12/27 12:51:09;;;;;;;2.17;1.88;;;16.90;26.80;;;;;;5113909;28;20173;-60
2020/12/27 12:53:35;;;;;;;2.40;2.20;;;16.90;26.80;;;;;;5113258;28;20686;-60
2020/12/27 12:56:02;;;;;;;2.20;2.00;;;16.90;26.90;;;;;;5114125;28;20223;-60